sensor_id;sensor_type;location;lat;lon;timestamp;temperature;humidity
77613;DHT22;66777;52.282;5.960;2023-04-24T00:00:16;8.80;95.80
77613;DHT22;66777;52.282;5.960;2023-04-24T00:02:43;8.70;95.70
77613;DHT22;66777;52.282;5.960;2023-04-24T00:05:14;8.60;95.80
77613;DHT22;66777;52.282;5.960;2023-04-24T00:07:41;8.60;95.70
77613;DHT22;66777;52.282;5.960;2023-04-24T00:10:08;8.50;95.70
77613;DHT22;66777;52.282;5.960;2023-04-24T00:12:34;8.50;95.70
77613;DHT22;66777;52.282;5.960;2023-04-24T00:15:00;8.50;95.70
77613;DHT22;66777;52.282;5.960;2023-04-24T00:17:26;8.50;95.70
77613;DHT22;66777;52.282;5.960;2023-04-24T00:19:52;8.50;95.80
77613;DHT22;66777;52.282;5.960;2023-04-24T00:22:28;8.50;95.70
77613;DHT22;66777;52.282;5.960;2023-04-24T00:24:54;8.40;95.80
77613;DHT22;66777;52.282;5.960;2023-04-24T00:27:20;8.40;95.80
77613;DHT22;66777;52.282;5.960;2023-04-24T00:29:46;8.40;95.80
77613;DHT22;66777;52.282;5.960;2023-04-24T00:32:13;8.40;95.80
77613;DHT22;66777;52.282;5.960;2023-04-24T00:34:39;8.40;95.80
77613;DHT22;66777;52.282;5.960;2023-04-24T00:37:06;8.40;95.80
77613;DHT22;66777;52.282;5.960;2023-04-24T00:39:32;8.40;95.70
77613;DHT22;66777;52.282;5.960;2023-04-24T00:41:57;8.40;95.70
77613;DHT22;66777;52.282;5.960;2023-04-24T00:44:23;8.40;95.60
77613;DHT22;66777;52.282;5.960;2023-04-24T00:46:50;8.40;95.50
77613;DHT22;66777;52.282;5.960;2023-04-24T00:49:23;8.40;95.50
77613;DHT22;66777;52.282;5.960;2023-04-24T00:51:49;8.40;95.50
77613;DHT22;66777;52.282;5.960;2023-04-24T00:54:17;8.40;95.30
77613;DHT22;66777;52.282;5.960;2023-04-24T00:56:44;8.40;95.40
77613;DHT22;66777;52.282;5.960;2023-04-24T00:59:16;8.30;95.30
77613;DHT22;66777;52.282;5.960;2023-04-24T01:01:43;8.30;95.20
77613;DHT22;66777;52.282;5.960;2023-04-24T01:04:11;8.20;95.20
77613;DHT22;66777;52.282;5.960;2023-04-24T01:06:39;8.20;95.20
77613;DHT22;66777;52.282;5.960;2023-04-24T01:09:05;8.10;95.10
77613;DHT22;66777;52.282;5.960;2023-04-24T01:11:33;8.10;95.10
77613;DHT22;66777;52.282;5.960;2023-04-24T01:14:00;8.10;95.10
77613;DHT22;66777;52.282;5.960;2023-04-24T01:16:25;8.00;95.10
77613;DHT22;66777;52.282;5.960;2023-04-24T01:18:52;8.00;95.10
77613;DHT22;66777;52.282;5.960;2023-04-24T01:21:18;8.00;95.10
77613;DHT22;66777;52.282;5.960;2023-04-24T01:23:46;8.00;95.10
77613;DHT22;66777;52.282;5.960;2023-04-24T01:26:16;8.00;95.00
77613;DHT22;66777;52.282;5.960;2023-04-24T01:28:43;8.00;95.00
77613;DHT22;66777;52.282;5.960;2023-04-24T01:31:09;8.00;95.00
77613;DHT22;66777;52.282;5.960;2023-04-24T01:33:35;8.00;95.00
77613;DHT22;66777;52.282;5.960;2023-04-24T01:36:01;8.10;95.00
77613;DHT22;66777;52.282;5.960;2023-04-24T01:38:27;8.10;95.00
77613;DHT22;66777;52.282;5.960;2023-04-24T01:40:53;8.20;95.00
77613;DHT22;66777;52.282;5.960;2023-04-24T01:43:19;8.20;95.00
77613;DHT22;66777;52.282;5.960;2023-04-24T01:45:45;8.20;94.90
77613;DHT22;66777;52.282;5.960;2023-04-24T01:48:14;8.20;94.80
77613;DHT22;66777;52.282;5.960;2023-04-24T01:50:40;8.10;94.80
77613;DHT22;66777;52.282;5.960;2023-04-24T01:53:06;8.10;94.70
77613;DHT22;66777;52.282;5.960;2023-04-24T01:55:32;8.10;94.70
77613;DHT22;66777;52.282;5.960;2023-04-24T01:57:59;8.10;94.70
77613;DHT22;66777;52.282;5.960;2023-04-24T02:00:26;8.10;94.70
77613;DHT22;66777;52.282;5.960;2023-04-24T02:02:52;8.10;94.70
77613;DHT22;66777;52.282;5.960;2023-04-24T02:05:18;8.20;94.60
77613;DHT22;66777;52.282;5.960;2023-04-24T02:07:44;8.20;94.70
77613;DHT22;66777;52.282;5.960;2023-04-24T02:10:10;8.30;94.70
77613;DHT22;66777;52.282;5.960;2023-04-24T02:12:36;8.30;94.60
77613;DHT22;66777;52.282;5.960;2023-04-24T02:15:02;8.30;94.60
77613;DHT22;66777;52.282;5.960;2023-04-24T02:17:28;8.30;94.60
77613;DHT22;66777;52.282;5.960;2023-04-24T02:19:54;8.30;94.60
77613;DHT22;66777;52.282;5.960;2023-04-24T02:22:20;8.30;94.60
77613;DHT22;66777;52.282;5.960;2023-04-24T02:24:46;8.20;94.60
77613;DHT22;66777;52.282;5.960;2023-04-24T02:27:12;8.20;94.60
77613;DHT22;66777;52.282;5.960;2023-04-24T02:29:37;8.10;94.50
77613;DHT22;66777;52.282;5.960;2023-04-24T02:32:05;8.10;94.40
77613;DHT22;66777;52.282;5.960;2023-04-24T02:34:31;8.00;94.40
77613;DHT22;66777;52.282;5.960;2023-04-24T02:36:57;8.00;94.50
77613;DHT22;66777;52.282;5.960;2023-04-24T02:39:23;8.10;94.40
77613;DHT22;66777;52.282;5.960;2023-04-24T02:41:49;8.20;94.40
77613;DHT22;66777;52.282;5.960;2023-04-24T02:44:14;8.20;94.50
77613;DHT22;66777;52.282;5.960;2023-04-24T02:46:40;8.30;94.50
77613;DHT22;66777;52.282;5.960;2023-04-24T02:49:07;8.30;94.50
77613;DHT22;66777;52.282;5.960;2023-04-24T02:51:33;8.30;94.50
77613;DHT22;66777;52.282;5.960;2023-04-24T02:53:59;8.30;94.40
77613;DHT22;66777;52.282;5.960;2023-04-24T02:56:25;8.30;94.50
77613;DHT22;66777;52.282;5.960;2023-04-24T02:58:50;8.30;94.50
77613;DHT22;66777;52.282;5.960;2023-04-24T03:01:16;8.30;94.60
77613;DHT22;66777;52.282;5.960;2023-04-24T03:03:43;8.40;94.60
77613;DHT22;66777;52.282;5.960;2023-04-24T03:06:09;8.40;94.60
77613;DHT22;66777;52.282;5.960;2023-04-24T03:08:35;8.40;94.50
77613;DHT22;66777;52.282;5.960;2023-04-24T03:11:01;8.40;94.50
77613;DHT22;66777;52.282;5.960;2023-04-24T03:13:35;8.40;94.50
77613;DHT22;66777;52.282;5.960;2023-04-24T03:16:00;8.40;94.40
77613;DHT22;66777;52.282;5.960;2023-04-24T03:18:26;8.30;94.40
77613;DHT22;66777;52.282;5.960;2023-04-24T03:20:52;8.40;94.40
77613;DHT22;66777;52.282;5.960;2023-04-24T03:23:19;8.30;94.30
77613;DHT22;66777;52.282;5.960;2023-04-24T03:25:45;8.40;94.30
77613;DHT22;66777;52.282;5.960;2023-04-24T03:28:11;8.40;94.40
77613;DHT22;66777;52.282;5.960;2023-04-24T03:30:37;8.30;94.40
77613;DHT22;66777;52.282;5.960;2023-04-24T03:33:03;8.40;94.30
77613;DHT22;66777;52.282;5.960;2023-04-24T03:35:28;8.40;94.40
77613;DHT22;66777;52.282;5.960;2023-04-24T03:37:54;8.40;94.50
77613;DHT22;66777;52.282;5.960;2023-04-24T03:40:20;8.40;94.50
77613;DHT22;66777;52.282;5.960;2023-04-24T03:42:46;8.40;94.50
77613;DHT22;66777;52.282;5.960;2023-04-24T03:45:12;8.40;94.60
77613;DHT22;66777;52.282;5.960;2023-04-24T03:47:38;8.40;94.60
77613;DHT22;66777;52.282;5.960;2023-04-24T03:50:04;8.50;94.60
77613;DHT22;66777;52.282;5.960;2023-04-24T03:52:30;8.50;94.60
77613;DHT22;66777;52.282;5.960;2023-04-24T03:54:57;8.50;94.60
77613;DHT22;66777;52.282;5.960;2023-04-24T03:57:23;8.50;94.60
77613;DHT22;66777;52.282;5.960;2023-04-24T03:59:49;8.50;94.70
77613;DHT22;66777;52.282;5.960;2023-04-24T04:02:14;8.60;94.70
77613;DHT22;66777;52.282;5.960;2023-04-24T04:04:40;8.60;94.60
77613;DHT22;66777;52.282;5.960;2023-04-24T04:07:07;8.60;94.60
77613;DHT22;66777;52.282;5.960;2023-04-24T04:09:34;8.50;94.60
77613;DHT22;66777;52.282;5.960;2023-04-24T04:11:59;8.50;94.70
77613;DHT22;66777;52.282;5.960;2023-04-24T04:14:26;8.50;94.60
77613;DHT22;66777;52.282;5.960;2023-04-24T04:16:51;8.50;94.60
77613;DHT22;66777;52.282;5.960;2023-04-24T04:19:17;8.40;94.60
77613;DHT22;66777;52.282;5.960;2023-04-24T04:21:43;8.40;94.60
77613;DHT22;66777;52.282;5.960;2023-04-24T04:24:11;8.40;94.60
77613;DHT22;66777;52.282;5.960;2023-04-24T04:26:37;8.40;94.70
77613;DHT22;66777;52.282;5.960;2023-04-24T04:29:03;8.40;94.70
77613;DHT22;66777;52.282;5.960;2023-04-24T04:31:29;8.40;94.70
77613;DHT22;66777;52.282;5.960;2023-04-24T04:33:56;8.40;94.70
77613;DHT22;66777;52.282;5.960;2023-04-24T04:36:21;8.40;94.70
77613;DHT22;66777;52.282;5.960;2023-04-24T04:38:47;8.40;94.70
77613;DHT22;66777;52.282;5.960;2023-04-24T04:41:15;8.40;94.90
77613;DHT22;66777;52.282;5.960;2023-04-24T04:43:42;8.40;94.80
77613;DHT22;66777;52.282;5.960;2023-04-24T04:46:08;8.40;94.90
77613;DHT22;66777;52.282;5.960;2023-04-24T04:48:36;8.40;94.90
77613;DHT22;66777;52.282;5.960;2023-04-24T04:51:02;8.40;94.90
77613;DHT22;66777;52.282;5.960;2023-04-24T04:53:28;8.40;95.00
77613;DHT22;66777;52.282;5.960;2023-04-24T04:55:53;8.40;95.00
77613;DHT22;66777;52.282;5.960;2023-04-24T04:58:20;8.40;95.00
77613;DHT22;66777;52.282;5.960;2023-04-24T05:00:46;8.40;95.00
77613;DHT22;66777;52.282;5.960;2023-04-24T05:03:12;8.40;95.00
77613;DHT22;66777;52.282;5.960;2023-04-24T05:05:37;8.40;94.90
77613;DHT22;66777;52.282;5.960;2023-04-24T05:08:06;8.40;95.00
77613;DHT22;66777;52.282;5.960;2023-04-24T05:10:33;8.40;95.00
77613;DHT22;66777;52.282;5.960;2023-04-24T05:12:58;8.30;95.10
77613;DHT22;66777;52.282;5.960;2023-04-24T05:15:24;8.30;95.10
77613;DHT22;66777;52.282;5.960;2023-04-24T05:17:50;8.40;95.10
77613;DHT22;66777;52.282;5.960;2023-04-24T05:20:16;8.30;95.10
77613;DHT22;66777;52.282;5.960;2023-04-24T05:22:42;8.20;95.20
77613;DHT22;66777;52.282;5.960;2023-04-24T05:25:08;8.30;95.30
77613;DHT22;66777;52.282;5.960;2023-04-24T05:27:34;8.20;95.30
77613;DHT22;66777;52.282;5.960;2023-04-24T05:30:00;8.20;95.40
77613;DHT22;66777;52.282;5.960;2023-04-24T05:32:26;8.30;95.40
77613;DHT22;66777;52.282;5.960;2023-04-24T05:34:52;8.30;95.40
77613;DHT22;66777;52.282;5.960;2023-04-24T05:37:18;8.20;95.50
77613;DHT22;66777;52.282;5.960;2023-04-24T05:39:44;8.20;95.50
77613;DHT22;66777;52.282;5.960;2023-04-24T05:42:10;8.20;95.50
77613;DHT22;66777;52.282;5.960;2023-04-24T05:44:36;8.20;95.50
77613;DHT22;66777;52.282;5.960;2023-04-24T05:47:02;8.20;95.50
77613;DHT22;66777;52.282;5.960;2023-04-24T05:49:28;8.20;95.60
77613;DHT22;66777;52.282;5.960;2023-04-24T05:51:54;8.20;95.60
77613;DHT22;66777;52.282;5.960;2023-04-24T05:54:20;8.20;95.60
77613;DHT22;66777;52.282;5.960;2023-04-24T05:56:46;8.30;95.60
77613;DHT22;66777;52.282;5.960;2023-04-24T05:59:11;8.30;95.60
77613;DHT22;66777;52.282;5.960;2023-04-24T06:01:37;8.30;95.70
77613;DHT22;66777;52.282;5.960;2023-04-24T06:04:03;8.30;95.70
77613;DHT22;66777;52.282;5.960;2023-04-24T06:06:29;8.30;95.70
77613;DHT22;66777;52.282;5.960;2023-04-24T06:08:56;8.40;95.80
77613;DHT22;66777;52.282;5.960;2023-04-24T06:11:22;8.50;95.80
77613;DHT22;66777;52.282;5.960;2023-04-24T06:13:48;8.50;95.80
77613;DHT22;66777;52.282;5.960;2023-04-24T06:16:14;8.50;95.80
77613;DHT22;66777;52.282;5.960;2023-04-24T06:18:41;8.50;95.80
77613;DHT22;66777;52.282;5.960;2023-04-24T06:21:07;8.50;95.80
77613;DHT22;66777;52.282;5.960;2023-04-24T06:23:33;8.60;95.80
77613;DHT22;66777;52.282;5.960;2023-04-24T06:25:59;8.60;95.80
77613;DHT22;66777;52.282;5.960;2023-04-24T06:28:25;8.50;95.80
77613;DHT22;66777;52.282;5.960;2023-04-24T06:30:51;8.50;95.80
77613;DHT22;66777;52.282;5.960;2023-04-24T06:33:19;8.50;95.80
77613;DHT22;66777;52.282;5.960;2023-04-24T06:35:45;8.60;95.80
77613;DHT22;66777;52.282;5.960;2023-04-24T06:38:11;8.60;95.90
77613;DHT22;66777;52.282;5.960;2023-04-24T06:40:37;8.80;95.90
77613;DHT22;66777;52.282;5.960;2023-04-24T06:43:03;8.80;95.90
77613;DHT22;66777;52.282;5.960;2023-04-24T06:45:30;8.80;95.90
77613;DHT22;66777;52.282;5.960;2023-04-24T06:47:56;8.80;96.00
77613;DHT22;66777;52.282;5.960;2023-04-24T06:50:22;8.70;95.90
77613;DHT22;66777;52.282;5.960;2023-04-24T06:52:48;8.60;95.90
77613;DHT22;66777;52.282;5.960;2023-04-24T06:55:14;8.60;95.90
77613;DHT22;66777;52.282;5.960;2023-04-24T06:57:42;8.60;96.00
77613;DHT22;66777;52.282;5.960;2023-04-24T07:00:08;8.60;96.00
77613;DHT22;66777;52.282;5.960;2023-04-24T07:02:35;8.50;95.90
77613;DHT22;66777;52.282;5.960;2023-04-24T07:05:03;8.60;96.10
77613;DHT22;66777;52.282;5.960;2023-04-24T07:07:29;8.60;96.00
77613;DHT22;66777;52.282;5.960;2023-04-24T07:09:54;8.60;96.00
77613;DHT22;66777;52.282;5.960;2023-04-24T07:12:21;8.60;96.00
77613;DHT22;66777;52.282;5.960;2023-04-24T07:14:47;8.60;96.10
77613;DHT22;66777;52.282;5.960;2023-04-24T07:17:14;8.60;96.00
77613;DHT22;66777;52.282;5.960;2023-04-24T07:19:40;8.60;96.10
77613;DHT22;66777;52.282;5.960;2023-04-24T07:22:06;8.50;96.10
77613;DHT22;66777;52.282;5.960;2023-04-24T07:24:32;8.50;96.00
77613;DHT22;66777;52.282;5.960;2023-04-24T07:26:58;8.60;96.10
77613;DHT22;66777;52.282;5.960;2023-04-24T07:29:25;8.60;96.10
77613;DHT22;66777;52.282;5.960;2023-04-24T07:31:51;8.60;96.20
77613;DHT22;66777;52.282;5.960;2023-04-24T07:34:17;8.80;96.20
77613;DHT22;66777;52.282;5.960;2023-04-24T07:36:42;8.80;96.20
77613;DHT22;66777;52.282;5.960;2023-04-24T07:39:08;8.80;96.20
77613;DHT22;66777;52.282;5.960;2023-04-24T07:41:35;8.70;96.20
77613;DHT22;66777;52.282;5.960;2023-04-24T07:44:00;8.70;96.20
77613;DHT22;66777;52.282;5.960;2023-04-24T07:46:26;8.80;96.20
77613;DHT22;66777;52.282;5.960;2023-04-24T07:48:55;8.80;96.20
77613;DHT22;66777;52.282;5.960;2023-04-24T07:51:21;8.80;96.20
77613;DHT22;66777;52.282;5.960;2023-04-24T07:53:47;8.70;96.20
77613;DHT22;66777;52.282;5.960;2023-04-24T07:56:13;8.70;96.20
77613;DHT22;66777;52.282;5.960;2023-04-24T07:58:38;8.60;96.20
77613;DHT22;66777;52.282;5.960;2023-04-24T08:01:04;8.60;96.20
77613;DHT22;66777;52.282;5.960;2023-04-24T08:03:30;8.60;96.20
77613;DHT22;66777;52.282;5.960;2023-04-24T08:05:56;8.60;96.20
77613;DHT22;66777;52.282;5.960;2023-04-24T08:08:22;8.60;96.20
77613;DHT22;66777;52.282;5.960;2023-04-24T08:10:48;8.60;96.20
77613;DHT22;66777;52.282;5.960;2023-04-24T08:13:14;8.60;96.30
77613;DHT22;66777;52.282;5.960;2023-04-24T08:15:40;8.60;96.20
77613;DHT22;66777;52.282;5.960;2023-04-24T08:18:06;8.60;96.20
77613;DHT22;66777;52.282;5.960;2023-04-24T08:20:32;8.60;96.30
77613;DHT22;66777;52.282;5.960;2023-04-24T08:22:58;8.60;96.20
77613;DHT22;66777;52.282;5.960;2023-04-24T08:25:23;8.70;96.30
77613;DHT22;66777;52.282;5.960;2023-04-24T08:27:51;8.70;96.30
77613;DHT22;66777;52.282;5.960;2023-04-24T08:30:17;8.70;96.30
77613;DHT22;66777;52.282;5.960;2023-04-24T08:32:44;8.70;96.30
77613;DHT22;66777;52.282;5.960;2023-04-24T08:35:09;8.70;96.30
77613;DHT22;66777;52.282;5.960;2023-04-24T08:37:36;8.80;96.30
77613;DHT22;66777;52.282;5.960;2023-04-24T08:40:06;8.70;96.20
77613;DHT22;66777;52.282;5.960;2023-04-24T08:42:37;8.70;96.30
77613;DHT22;66777;52.282;5.960;2023-04-24T08:45:04;8.70;96.30
77613;DHT22;66777;52.282;5.960;2023-04-24T08:47:31;8.80;96.30
77613;DHT22;66777;52.282;5.960;2023-04-24T08:49:58;8.90;96.30
77613;DHT22;66777;52.282;5.960;2023-04-24T08:52:25;8.90;96.30
77613;DHT22;66777;52.282;5.960;2023-04-24T08:54:52;9.00;96.30
77613;DHT22;66777;52.282;5.960;2023-04-24T08:57:18;8.90;96.30
77613;DHT22;66777;52.282;5.960;2023-04-24T08:59:44;8.80;96.20
77613;DHT22;66777;52.282;5.960;2023-04-24T09:02:11;8.60;96.20
77613;DHT22;66777;52.282;5.960;2023-04-24T09:04:37;8.60;96.20
77613;DHT22;66777;52.282;5.960;2023-04-24T09:07:06;8.50;96.20
77613;DHT22;66777;52.282;5.960;2023-04-24T09:09:32;8.60;96.20
77613;DHT22;66777;52.282;5.960;2023-04-24T09:11:58;8.60;96.20
77613;DHT22;66777;52.282;5.960;2023-04-24T09:14:24;8.70;96.20
77613;DHT22;66777;52.282;5.960;2023-04-24T09:16:50;8.60;96.30
77613;DHT22;66777;52.282;5.960;2023-04-24T09:19:18;8.60;96.20
77613;DHT22;66777;52.282;5.960;2023-04-24T09:21:45;8.80;96.20
77613;DHT22;66777;52.282;5.960;2023-04-24T09:24:20;8.80;96.30
77613;DHT22;66777;52.282;5.960;2023-04-24T09:26:49;8.90;96.30
77613;DHT22;66777;52.282;5.960;2023-04-24T09:29:18;9.00;96.30
77613;DHT22;66777;52.282;5.960;2023-04-24T09:31:45;9.00;96.40
77613;DHT22;66777;52.282;5.960;2023-04-24T09:34:11;9.20;96.40
77613;DHT22;66777;52.282;5.960;2023-04-24T09:36:41;9.20;96.40
77613;DHT22;66777;52.282;5.960;2023-04-24T09:39:12;9.20;96.30
77613;DHT22;66777;52.282;5.960;2023-04-24T09:41:50;9.00;96.30
77613;DHT22;66777;52.282;5.960;2023-04-24T09:44:24;8.90;96.30
77613;DHT22;66777;52.282;5.960;2023-04-24T09:46:54;8.90;96.20
77613;DHT22;66777;52.282;5.960;2023-04-24T09:49:28;8.90;96.20
77613;DHT22;66777;52.282;5.960;2023-04-24T09:52:14;8.90;96.20
77613;DHT22;66777;52.282;5.960;2023-04-24T09:54:40;8.80;96.20
77613;DHT22;66777;52.282;5.960;2023-04-24T09:57:09;8.70;96.20
77613;DHT22;66777;52.282;5.960;2023-04-24T09:59:35;8.90;96.20
77613;DHT22;66777;52.282;5.960;2023-04-24T10:02:20;9.10;96.30
77613;DHT22;66777;52.282;5.960;2023-04-24T10:04:56;9.00;96.30
77613;DHT22;66777;52.282;5.960;2023-04-24T10:07:22;9.00;96.20
77613;DHT22;66777;52.282;5.960;2023-04-24T10:09:48;9.10;96.20
77613;DHT22;66777;52.282;5.960;2023-04-24T10:12:15;9.20;96.20
77613;DHT22;66777;52.282;5.960;2023-04-24T10:14:41;9.50;96.30
77613;DHT22;66777;52.282;5.960;2023-04-24T10:17:07;9.60;96.30
77613;DHT22;66777;52.282;5.960;2023-04-24T10:19:33;9.40;96.20
77613;DHT22;66777;52.282;5.960;2023-04-24T10:22:02;9.20;96.10
77613;DHT22;66777;52.282;5.960;2023-04-24T10:24:28;9.20;96.10
77613;DHT22;66777;52.282;5.960;2023-04-24T10:26:55;9.70;96.20
77613;DHT22;66777;52.282;5.960;2023-04-24T10:29:22;10.20;96.30
77613;DHT22;66777;52.282;5.960;2023-04-24T10:31:49;10.60;96.40
77613;DHT22;66777;52.282;5.960;2023-04-24T10:34:16;10.60;96.00
77613;DHT22;66777;52.282;5.960;2023-04-24T10:36:48;10.70;95.80
77613;DHT22;66777;52.282;5.960;2023-04-24T10:39:16;10.80;95.50
77613;DHT22;66777;52.282;5.960;2023-04-24T10:41:43;10.70;95.20
77613;DHT22;66777;52.282;5.960;2023-04-24T10:44:11;11.30;95.50
77613;DHT22;66777;52.282;5.960;2023-04-24T10:46:38;11.30;95.10
77613;DHT22;66777;52.282;5.960;2023-04-24T10:49:08;11.10;95.00
77613;DHT22;66777;52.282;5.960;2023-04-24T10:51:46;11.10;95.10
77613;DHT22;66777;52.282;5.960;2023-04-24T10:54:42;10.70;94.90
77613;DHT22;66777;52.282;5.960;2023-04-24T10:59:49;10.70;95.00
77613;DHT22;66777;52.282;5.960;2023-04-24T11:02:36;10.80;95.10
77613;DHT22;66777;52.282;5.960;2023-04-24T11:05:05;10.90;95.00
77613;DHT22;66777;52.282;5.960;2023-04-24T11:10:54;10.60;95.00
77613;DHT22;66777;52.282;5.960;2023-04-24T11:14:06;9.80;94.50
77613;DHT22;66777;52.282;5.960;2023-04-24T11:16:27;9.70;94.80
77613;DHT22;66777;52.282;5.960;2023-04-24T11:21:32;9.80;95.10
77613;DHT22;66777;52.282;5.960;2023-04-24T11:23:58;9.90;95.20
77613;DHT22;66777;52.282;5.960;2023-04-24T11:26:45;10.00;95.30
77613;DHT22;66777;52.282;5.960;2023-04-24T11:29:11;9.80;95.20
77613;DHT22;66777;52.282;5.960;2023-04-24T11:31:38;9.60;95.10
77613;DHT22;66777;52.282;5.960;2023-04-24T11:34:13;9.50;95.20
77613;DHT22;66777;52.282;5.960;2023-04-24T11:36:44;9.20;94.90
77613;DHT22;66777;52.282;5.960;2023-04-24T11:39:10;9.20;94.90
77613;DHT22;66777;52.282;5.960;2023-04-24T11:41:37;9.50;94.80
77613;DHT22;66777;52.282;5.960;2023-04-24T11:44:05;10.40;95.20
77613;DHT22;66777;52.282;5.960;2023-04-24T11:46:32;11.20;95.10
77613;DHT22;66777;52.282;5.960;2023-04-24T11:48:58;11.90;93.60
77613;DHT22;66777;52.282;5.960;2023-04-24T11:51:25;12.60;93.70
77613;DHT22;66777;52.282;5.960;2023-04-24T11:53:53;13.60;94.00
77613;DHT22;66777;52.282;5.960;2023-04-24T11:56:21;14.60;93.20
77613;DHT22;66777;52.282;5.960;2023-04-24T11:58:47;13.90;87.70
77613;DHT22;66777;52.282;5.960;2023-04-24T12:01:14;12.70;89.60
77613;DHT22;66777;52.282;5.960;2023-04-24T12:03:40;11.50;89.50
77613;DHT22;66777;52.282;5.960;2023-04-24T12:06:10;10.80;91.40
77613;DHT22;66777;52.282;5.960;2023-04-24T12:08:37;10.20;91.70
77613;DHT22;66777;52.282;5.960;2023-04-24T12:11:05;9.80;92.00
77613;DHT22;66777;52.282;5.960;2023-04-24T12:13:33;9.70;92.70
77613;DHT22;66777;52.282;5.960;2023-04-24T12:16:03;9.90;93.20
77613;DHT22;66777;52.282;5.960;2023-04-24T12:18:30;9.80;92.60
77613;DHT22;66777;52.282;5.960;2023-04-24T12:21:13;9.90;92.80
77613;DHT22;66777;52.282;5.960;2023-04-24T12:23:43;10.30;93.00
77613;DHT22;66777;52.282;5.960;2023-04-24T12:26:10;11.20;92.50
77613;DHT22;66777;52.282;5.960;2023-04-24T12:28:37;13.40;92.00
77613;DHT22;66777;52.282;5.960;2023-04-24T12:31:03;14.10;90.70
77613;DHT22;66777;52.282;5.960;2023-04-24T12:33:33;14.80;89.40
77613;DHT22;66777;52.282;5.960;2023-04-24T12:36:00;14.60;86.60
77613;DHT22;66777;52.282;5.960;2023-04-24T12:38:27;13.80;86.00
77613;DHT22;66777;52.282;5.960;2023-04-24T12:43:33;11.90;90.20
77613;DHT22;66777;52.282;5.960;2023-04-24T12:45:59;11.00;89.70
77613;DHT22;66777;52.282;5.960;2023-04-24T12:48:26;10.40;90.30
77613;DHT22;66777;52.282;5.960;2023-04-24T12:50:52;10.10;91.40
77613;DHT22;66777;52.282;5.960;2023-04-24T12:53:17;10.90;92.60
77613;DHT22;66777;52.282;5.960;2023-04-24T12:55:44;12.70;93.20
77613;DHT22;66777;52.282;5.960;2023-04-24T12:58:19;13.70;92.20
77613;DHT22;66777;52.282;5.960;2023-04-24T13:00:46;13.70;89.10
77613;DHT22;66777;52.282;5.960;2023-04-24T13:03:13;13.70;88.50
77613;DHT22;66777;52.282;5.960;2023-04-24T13:05:39;13.40;88.70
77613;DHT22;66777;52.282;5.960;2023-04-24T13:08:05;12.80;89.90
77613;DHT22;66777;52.282;5.960;2023-04-24T13:10:31;12.00;89.30
77613;DHT22;66777;52.282;5.960;2023-04-24T13:12:57;11.20;88.90
77613;DHT22;66777;52.282;5.960;2023-04-24T13:15:23;10.60;90.00
77613;DHT22;66777;52.282;5.960;2023-04-24T13:17:49;10.30;90.30
77613;DHT22;66777;52.282;5.960;2023-04-24T13:20:15;10.10;91.00
77613;DHT22;66777;52.282;5.960;2023-04-24T13:22:41;10.10;91.30
77613;DHT22;66777;52.282;5.960;2023-04-24T13:25:08;10.20;90.10
77613;DHT22;66777;52.282;5.960;2023-04-24T13:27:34;10.90;89.50
77613;DHT22;66777;52.282;5.960;2023-04-24T13:30:00;10.70;89.20
77613;DHT22;66777;52.282;5.960;2023-04-24T13:32:26;10.70;88.50
77613;DHT22;66777;52.282;5.960;2023-04-24T13:34:53;10.80;88.70
77613;DHT22;66777;52.282;5.960;2023-04-24T13:37:19;10.90;88.50
77613;DHT22;66777;52.282;5.960;2023-04-24T13:39:45;11.40;87.10
77613;DHT22;66777;52.282;5.960;2023-04-24T13:42:11;12.80;88.30
77613;DHT22;66777;52.282;5.960;2023-04-24T13:44:38;14.00;82.60
77613;DHT22;66777;52.282;5.960;2023-04-24T13:47:04;14.20;84.00
77613;DHT22;66777;52.282;5.960;2023-04-24T13:49:33;13.90;84.80
77613;DHT22;66777;52.282;5.960;2023-04-24T13:51:59;14.90;82.20
77613;DHT22;66777;52.282;5.960;2023-04-24T13:54:25;14.00;80.50
77613;DHT22;66777;52.282;5.960;2023-04-24T13:56:52;13.00;82.30
77613;DHT22;66777;52.282;5.960;2023-04-24T13:59:19;12.00;79.90
77613;DHT22;66777;52.282;5.960;2023-04-24T14:01:46;11.40;84.30
77613;DHT22;66777;52.282;5.960;2023-04-24T14:04:13;10.90;84.90
77613;DHT22;66777;52.282;5.960;2023-04-24T14:06:39;10.50;86.50
77613;DHT22;66777;52.282;5.960;2023-04-24T14:09:06;10.30;86.10
77613;DHT22;66777;52.282;5.960;2023-04-24T14:11:33;10.00;85.50
77613;DHT22;66777;52.282;5.960;2023-04-24T14:14:01;9.60;85.40
77613;DHT22;66777;52.282;5.960;2023-04-24T14:16:28;9.50;86.90
77613;DHT22;66777;52.282;5.960;2023-04-24T14:18:54;9.60;87.30
77613;DHT22;66777;52.282;5.960;2023-04-24T14:21:20;10.00;87.10
77613;DHT22;66777;52.282;5.960;2023-04-24T14:23:45;10.10;86.50
77613;DHT22;66777;52.282;5.960;2023-04-24T14:26:11;10.10;86.60
77613;DHT22;66777;52.282;5.960;2023-04-24T14:28:37;10.20;86.30
77613;DHT22;66777;52.282;5.960;2023-04-24T14:31:03;10.00;86.20
77613;DHT22;66777;52.282;5.960;2023-04-24T14:33:29;11.00;84.80
77613;DHT22;66777;52.282;5.960;2023-04-24T14:35:55;14.30;77.80
77613;DHT22;66777;52.282;5.960;2023-04-24T14:38:22;13.50;77.80
77613;DHT22;66777;52.282;5.960;2023-04-24T14:40:47;12.50;77.90
77613;DHT22;66777;52.282;5.960;2023-04-24T14:43:15;11.40;79.20
77613;DHT22;66777;52.282;5.960;2023-04-24T14:45:41;10.80;80.90
77613;DHT22;66777;52.282;5.960;2023-04-24T14:48:08;10.50;83.00
77613;DHT22;66777;52.282;5.960;2023-04-24T14:50:35;11.00;82.60
77613;DHT22;66777;52.282;5.960;2023-04-24T14:53:01;15.40;76.80
77613;DHT22;66777;52.282;5.960;2023-04-24T14:55:27;21.40;65.40
77613;DHT22;66777;52.282;5.960;2023-04-24T14:57:54;25.20;57.10
77613;DHT22;66777;52.282;5.960;2023-04-24T15:00:21;26.60;53.50
77613;DHT22;66777;52.282;5.960;2023-04-24T15:02:49;28.70;50.60
77613;DHT22;66777;52.282;5.960;2023-04-24T15:05:15;29.20;48.40
77613;DHT22;66777;52.282;5.960;2023-04-24T15:07:41;29.50;47.30
77613;DHT22;66777;52.282;5.960;2023-04-24T15:10:12;28.30;46.40
77613;DHT22;66777;52.282;5.960;2023-04-24T15:12:38;29.30;47.10
77613;DHT22;66777;52.282;5.960;2023-04-24T15:15:04;26.40;50.10
77613;DHT22;66777;52.282;5.960;2023-04-24T15:17:30;23.40;51.80
77613;DHT22;66777;52.282;5.960;2023-04-24T15:19:56;20.00;56.60
77613;DHT22;66777;52.282;5.960;2023-04-24T15:22:24;18.40;58.50
77613;DHT22;66777;52.282;5.960;2023-04-24T15:24:50;19.00;54.40
77613;DHT22;66777;52.282;5.960;2023-04-24T15:27:16;20.50;53.80
77613;DHT22;66777;52.282;5.960;2023-04-24T15:29:42;21.70;53.40
77613;DHT22;66777;52.282;5.960;2023-04-24T15:32:09;23.50;50.70
77613;DHT22;66777;52.282;5.960;2023-04-24T15:34:35;26.60;48.30
77613;DHT22;66777;52.282;5.960;2023-04-24T15:37:01;28.70;43.30
77613;DHT22;66777;52.282;5.960;2023-04-24T15:39:27;25.30;42.40
77613;DHT22;66777;52.282;5.960;2023-04-24T15:41:53;20.50;50.90
77613;DHT22;66777;52.282;5.960;2023-04-24T15:44:22;18.90;52.50
77613;DHT22;66777;52.282;5.960;2023-04-24T15:46:48;18.00;50.90
77613;DHT22;66777;52.282;5.960;2023-04-24T15:49:14;15.60;56.80
77613;DHT22;66777;52.282;5.960;2023-04-24T15:51:40;15.80;58.20